sensor_id;sensor_type;location;lat;lon;timestamp;temperature;humidity
19407;DHT22;9839;53.364;-1.204;2023-02-10T00:02:22;4.60;99.90
19407;DHT22;9839;53.364;-1.204;2023-02-10T00:04:48;4.60;99.90
19407;DHT22;9839;53.364;-1.204;2023-02-10T00:07:13;4.50;99.90
19407;DHT22;9839;53.364;-1.204;2023-02-10T00:09:39;4.50;99.90
19407;DHT22;9839;53.364;-1.204;2023-02-10T00:12:05;4.40;99.90
19407;DHT22;9839;53.364;-1.204;2023-02-10T00:14:33;4.30;99.90
19407;DHT22;9839;53.364;-1.204;2023-02-10T00:16:59;4.20;99.90
19407;DHT22;9839;53.364;-1.204;2023-02-10T00:19:26;4.10;99.90
19407;DHT22;9839;53.364;-1.204;2023-02-10T00:21:52;3.90;99.90
19407;DHT22;9839;53.364;-1.204;2023-02-10T00:24:18;3.80;99.90
19407;DHT22;9839;53.364;-1.204;2023-02-10T00:26:44;3.70;99.90
19407;DHT22;9839;53.364;-1.204;2023-02-10T00:29:09;3.70;99.90
19407;DHT22;9839;53.364;-1.204;2023-02-10T00:31:35;3.60;99.90
19407;DHT22;9839;53.364;-1.204;2023-02-10T00:34:01;3.60;99.90
19407;DHT22;9839;53.364;-1.204;2023-02-10T00:36:26;3.50;99.90
19407;DHT22;9839;53.364;-1.204;2023-02-10T00:38:52;3.50;99.90
19407;DHT22;9839;53.364;-1.204;2023-02-10T00:41:20;3.50;99.90
19407;DHT22;9839;53.364;-1.204;2023-02-10T00:43:46;3.40;99.90
19407;DHT22;9839;53.364;-1.204;2023-02-10T00:46:13;3.40;99.90
19407;DHT22;9839;53.364;-1.204;2023-02-10T00:48:39;3.40;99.90
19407;DHT22;9839;53.364;-1.204;2023-02-10T00:51:04;3.50;99.90
19407;DHT22;9839;53.364;-1.204;2023-02-10T00:53:31;3.60;99.90
19407;DHT22;9839;53.364;-1.204;2023-02-10T00:55:57;3.60;99.90
19407;DHT22;9839;53.364;-1.204;2023-02-10T00:58:23;3.50;99.90
19407;DHT22;9839;53.364;-1.204;2023-02-10T01:00:49;3.50;99.90
19407;DHT22;9839;53.364;-1.204;2023-02-10T01:03:14;3.50;99.90
19407;DHT22;9839;53.364;-1.204;2023-02-10T01:05:40;3.50;99.90
19407;DHT22;9839;53.364;-1.204;2023-02-10T01:08:06;3.40;99.90
19407;DHT22;9839;53.364;-1.204;2023-02-10T01:10:33;3.40;99.90
19407;DHT22;9839;53.364;-1.204;2023-02-10T01:13:04;3.40;99.90
19407;DHT22;9839;53.364;-1.204;2023-02-10T01:15:31;3.40;99.90
19407;DHT22;9839;53.364;-1.204;2023-02-10T01:17:57;3.30;99.90
19407;DHT22;9839;53.364;-1.204;2023-02-10T01:20:23;3.30;99.90
19407;DHT22;9839;53.364;-1.204;2023-02-10T01:22:49;3.20;99.90
19407;DHT22;9839;53.364;-1.204;2023-02-10T01:25:15;3.20;99.90
19407;DHT22;9839;53.364;-1.204;2023-02-10T01:27:40;3.10;99.90
19407;DHT22;9839;53.364;-1.204;2023-02-10T01:30:06;3.00;99.90
19407;DHT22;9839;53.364;-1.204;2023-02-10T01:32:32;3.00;99.90
19407;DHT22;9839;53.364;-1.204;2023-02-10T01:34:58;3.00;99.90
19407;DHT22;9839;53.364;-1.204;2023-02-10T01:37:24;2.90;99.90
19407;DHT22;9839;53.364;-1.204;2023-02-10T01:39:49;2.90;99.90
19407;DHT22;9839;53.364;-1.204;2023-02-10T01:42:16;2.80;99.90
19407;DHT22;9839;53.364;-1.204;2023-02-10T01:47:08;2.80;99.90
19407;DHT22;9839;53.364;-1.204;2023-02-10T01:49:37;2.80;99.90
19407;DHT22;9839;53.364;-1.204;2023-02-10T01:52:18;2.70;99.90
19407;DHT22;9839;53.364;-1.204;2023-02-10T01:55:06;2.70;99.90
19407;DHT22;9839;53.364;-1.204;2023-02-10T01:57:33;2.80;99.90
19407;DHT22;9839;53.364;-1.204;2023-02-10T02:00:01;2.90;99.90
19407;DHT22;9839;53.364;-1.204;2023-02-10T02:02:28;2.90;99.90
19407;DHT22;9839;53.364;-1.204;2023-02-10T02:05:06;2.90;99.90
19407;DHT22;9839;53.364;-1.204;2023-02-10T02:07:36;3.00;99.90
19407;DHT22;9839;53.364;-1.204;2023-02-10T02:10:05;3.00;99.90
19407;DHT22;9839;53.364;-1.204;2023-02-10T02:15:42;3.00;99.90
19407;DHT22;9839;53.364;-1.204;2023-02-10T02:23:30;3.00;99.90
19407;DHT22;9839;53.364;-1.204;2023-02-10T02:37:19;2.80;99.90
19407;DHT22;9839;53.364;-1.204;2023-02-10T02:39:49;2.70;99.90
19407;DHT22;9839;53.364;-1.204;2023-02-10T02:44:43;2.80;99.90
19407;DHT22;9839;53.364;-1.204;2023-02-10T02:53:05;2.80;99.90
19407;DHT22;9839;53.364;-1.204;2023-02-10T03:00:58;2.70;99.90
19407;DHT22;9839;53.364;-1.204;2023-02-10T03:03:33;2.60;99.90
19407;DHT22;9839;53.364;-1.204;2023-02-10T03:06:00;2.60;99.90
19407;DHT22;9839;53.364;-1.204;2023-02-10T03:08:28;2.50;99.90
19407;DHT22;9839;53.364;-1.204;2023-02-10T03:10:55;2.50;99.90
19407;DHT22;9839;53.364;-1.204;2023-02-10T03:13:20;2.50;99.90
19407;DHT22;9839;53.364;-1.204;2023-02-10T03:15:46;2.40;99.90
19407;DHT22;9839;53.364;-1.204;2023-02-10T03:18:12;2.30;99.90
19407;DHT22;9839;53.364;-1.204;2023-02-10T03:20:39;2.30;99.90
19407;DHT22;9839;53.364;-1.204;2023-02-10T03:23:04;2.20;99.90
19407;DHT22;9839;53.364;-1.204;2023-02-10T03:25:30;2.30;99.90
19407;DHT22;9839;53.364;-1.204;2023-02-10T03:27:56;2.40;99.90
19407;DHT22;9839;53.364;-1.204;2023-02-10T03:30:22;2.40;99.90
19407;DHT22;9839;53.364;-1.204;2023-02-10T03:32:47;2.50;99.90
19407;DHT22;9839;53.364;-1.204;2023-02-10T03:35:14;2.50;99.90
19407;DHT22;9839;53.364;-1.204;2023-02-10T03:37:40;2.50;99.90
19407;DHT22;9839;53.364;-1.204;2023-02-10T03:40:06;2.50;99.90
19407;DHT22;9839;53.364;-1.204;2023-02-10T03:42:32;2.50;99.90
19407;DHT22;9839;53.364;-1.204;2023-02-10T03:44:57;2.50;99.90
19407;DHT22;9839;53.364;-1.204;2023-02-10T03:47:23;2.50;99.90
19407;DHT22;9839;53.364;-1.204;2023-02-10T03:49:49;2.50;99.90
19407;DHT22;9839;53.364;-1.204;2023-02-10T03:52:15;2.50;99.90
19407;DHT22;9839;53.364;-1.204;2023-02-10T03:54:40;2.50;99.90
19407;DHT22;9839;53.364;-1.204;2023-02-10T03:57:06;2.50;99.90
19407;DHT22;9839;53.364;-1.204;2023-02-10T03:59:32;2.40;99.90
19407;DHT22;9839;53.364;-1.204;2023-02-10T04:01:58;2.40;99.90
19407;DHT22;9839;53.364;-1.204;2023-02-10T04:04:23;2.30;99.90
19407;DHT22;9839;53.364;-1.204;2023-02-10T04:06:49;2.30;99.90
19407;DHT22;9839;53.364;-1.204;2023-02-10T04:09:15;2.30;99.90
19407;DHT22;9839;53.364;-1.204;2023-02-10T04:11:41;2.30;99.90
19407;DHT22;9839;53.364;-1.204;2023-02-10T04:14:06;2.40;99.90
19407;DHT22;9839;53.364;-1.204;2023-02-10T04:16:32;2.40;99.90
19407;DHT22;9839;53.364;-1.204;2023-02-10T04:18:59;2.50;99.90
19407;DHT22;9839;53.364;-1.204;2023-02-10T04:21:25;2.60;99.90
19407;DHT22;9839;53.364;-1.204;2023-02-10T04:23:52;2.60;99.90
19407;DHT22;9839;53.364;-1.204;2023-02-10T04:26:17;2.60;99.90
19407;DHT22;9839;53.364;-1.204;2023-02-10T04:28:43;2.70;99.90
19407;DHT22;9839;53.364;-1.204;2023-02-10T04:31:09;2.70;99.90
19407;DHT22;9839;53.364;-1.204;2023-02-10T04:33:36;2.80;99.90
19407;DHT22;9839;53.364;-1.204;2023-02-10T04:36:02;2.90;99.90
19407;DHT22;9839;53.364;-1.204;2023-02-10T04:38:28;3.00;99.90
19407;DHT22;9839;53.364;-1.204;2023-02-10T04:40:54;3.00;99.90
19407;DHT22;9839;53.364;-1.204;2023-02-10T04:43:20;3.00;99.90
19407;DHT22;9839;53.364;-1.204;2023-02-10T04:45:47;3.10;99.90
19407;DHT22;9839;53.364;-1.204;2023-02-10T04:48:13;3.00;99.90
19407;DHT22;9839;53.364;-1.204;2023-02-10T04:50:42;3.00;99.90
19407;DHT22;9839;53.364;-1.204;2023-02-10T04:53:08;3.00;99.90
19407;DHT22;9839;53.364;-1.204;2023-02-10T04:55:34;2.90;99.90
19407;DHT22;9839;53.364;-1.204;2023-02-10T04:58:00;2.80;99.90
19407;DHT22;9839;53.364;-1.204;2023-02-10T05:00:25;2.70;99.90
19407;DHT22;9839;53.364;-1.204;2023-02-10T05:02:51;2.60;99.90
19407;DHT22;9839;53.364;-1.204;2023-02-10T05:05:17;2.60;99.90
19407;DHT22;9839;53.364;-1.204;2023-02-10T05:07:43;2.60;99.90
19407;DHT22;9839;53.364;-1.204;2023-02-10T05:10:09;2.60;99.90
19407;DHT22;9839;53.364;-1.204;2023-02-10T05:12:34;2.60;99.90
19407;DHT22;9839;53.364;-1.204;2023-02-10T05:15:00;2.60;99.90
19407;DHT22;9839;53.364;-1.204;2023-02-10T05:17:26;2.70;99.90
19407;DHT22;9839;53.364;-1.204;2023-02-10T05:19:52;2.70;99.90
19407;DHT22;9839;53.364;-1.204;2023-02-10T05:22:17;2.70;99.90
19407;DHT22;9839;53.364;-1.204;2023-02-10T05:24:43;2.60;99.90
19407;DHT22;9839;53.364;-1.204;2023-02-10T05:27:08;2.60;99.90
19407;DHT22;9839;53.364;-1.204;2023-02-10T05:29:34;2.60;99.90
19407;DHT22;9839;53.364;-1.204;2023-02-10T05:32:00;2.50;99.90
19407;DHT22;9839;53.364;-1.204;2023-02-10T05:34:26;2.50;99.90
19407;DHT22;9839;53.364;-1.204;2023-02-10T05:36:52;2.50;99.90
19407;DHT22;9839;53.364;-1.204;2023-02-10T05:39:18;2.60;99.90
19407;DHT22;9839;53.364;-1.204;2023-02-10T05:41:51;2.70;99.90
19407;DHT22;9839;53.364;-1.204;2023-02-10T05:44:17;2.90;99.90
19407;DHT22;9839;53.364;-1.204;2023-02-10T05:46:42;3.00;99.90
19407;DHT22;9839;53.364;-1.204;2023-02-10T05:49:08;3.10;99.90
19407;DHT22;9839;53.364;-1.204;2023-02-10T05:51:34;3.10;99.90
19407;DHT22;9839;53.364;-1.204;2023-02-10T05:53:59;3.20;99.90
19407;DHT22;9839;53.364;-1.204;2023-02-10T05:56:25;3.20;99.90
19407;DHT22;9839;53.364;-1.204;2023-02-10T05:58:51;3.10;99.90
19407;DHT22;9839;53.364;-1.204;2023-02-10T06:01:17;3.10;99.90
19407;DHT22;9839;53.364;-1.204;2023-02-10T06:03:42;3.10;99.90
19407;DHT22;9839;53.364;-1.204;2023-02-10T06:06:09;3.10;99.90
19407;DHT22;9839;53.364;-1.204;2023-02-10T06:08:35;3.00;99.90
19407;DHT22;9839;53.364;-1.204;2023-02-10T06:11:00;3.00;99.90
19407;DHT22;9839;53.364;-1.204;2023-02-10T06:13:26;2.90;99.90
19407;DHT22;9839;53.364;-1.204;2023-02-10T06:15:51;2.90;99.90
19407;DHT22;9839;53.364;-1.204;2023-02-10T06:18:17;2.90;99.90
19407;DHT22;9839;53.364;-1.204;2023-02-10T06:20:45;2.90;99.90
19407;DHT22;9839;53.364;-1.204;2023-02-10T06:23:11;2.90;99.90
19407;DHT22;9839;53.364;-1.204;2023-02-10T06:25:37;2.90;99.90
19407;DHT22;9839;53.364;-1.204;2023-02-10T06:28:03;2.90;99.90
19407;DHT22;9839;53.364;-1.204;2023-02-10T06:30:29;2.90;99.90
19407;DHT22;9839;53.364;-1.204;2023-02-10T06:32:55;2.90;99.90
19407;DHT22;9839;53.364;-1.204;2023-02-10T06:35:20;2.80;99.90
19407;DHT22;9839;53.364;-1.204;2023-02-10T06:37:46;2.90;99.90
19407;DHT22;9839;53.364;-1.204;2023-02-10T06:40:12;2.90;99.90
19407;DHT22;9839;53.364;-1.204;2023-02-10T06:42:39;3.00;99.90
19407;DHT22;9839;53.364;-1.204;2023-02-10T06:45:05;3.00;99.90
19407;DHT22;9839;53.364;-1.204;2023-02-10T06:47:31;2.90;99.90
19407;DHT22;9839;53.364;-1.204;2023-02-10T06:49:57;3.00;99.90
19407;DHT22;9839;53.364;-1.204;2023-02-10T06:52:22;3.10;99.90
19407;DHT22;9839;53.364;-1.204;2023-02-10T06:54:50;3.10;99.90
19407;DHT22;9839;53.364;-1.204;2023-02-10T06:57:16;3.20;99.90
19407;DHT22;9839;53.364;-1.204;2023-02-10T06:59:41;3.20;99.90
19407;DHT22;9839;53.364;-1.204;2023-02-10T07:02:10;3.20;99.90
19407;DHT22;9839;53.364;-1.204;2023-02-10T07:04:36;3.20;99.90
19407;DHT22;9839;53.364;-1.204;2023-02-10T07:07:02;3.10;99.90
19407;DHT22;9839;53.364;-1.204;2023-02-10T07:09:27;3.00;99.90
19407;DHT22;9839;53.364;-1.204;2023-02-10T07:11:53;3.00;99.90
19407;DHT22;9839;53.364;-1.204;2023-02-10T07:14:19;2.90;99.90
19407;DHT22;9839;53.364;-1.204;2023-02-10T07:16:45;3.00;99.90
19407;DHT22;9839;53.364;-1.204;2023-02-10T07:19:11;3.00;99.90
19407;DHT22;9839;53.364;-1.204;2023-02-10T07:21:37;3.00;99.90
19407;DHT22;9839;53.364;-1.204;2023-02-10T07:24:04;3.00;99.90
19407;DHT22;9839;53.364;-1.204;2023-02-10T07:26:29;3.00;99.90
19407;DHT22;9839;53.364;-1.204;2023-02-10T07:28:55;3.00;99.90
19407;DHT22;9839;53.364;-1.204;2023-02-10T07:31:21;3.10;99.90
19407;DHT22;9839;53.364;-1.204;2023-02-10T07:33:46;3.10;99.90
19407;DHT22;9839;53.364;-1.204;2023-02-10T07:36:12;3.10;99.90
19407;DHT22;9839;53.364;-1.204;2023-02-10T07:38:38;3.20;99.90
19407;DHT22;9839;53.364;-1.204;2023-02-10T07:41:06;3.30;99.90
19407;DHT22;9839;53.364;-1.204;2023-02-10T07:43:32;3.30;99.90
19407;DHT22;9839;53.364;-1.204;2023-02-10T07:45:58;3.40;99.90
19407;DHT22;9839;53.364;-1.204;2023-02-10T07:48:24;3.60;99.90
19407;DHT22;9839;53.364;-1.204;2023-02-10T07:50:50;3.60;99.90
19407;DHT22;9839;53.364;-1.204;2023-02-10T07:53:17;3.60;99.90
19407;DHT22;9839;53.364;-1.204;2023-02-10T07:55:43;3.60;99.90
19407;DHT22;9839;53.364;-1.204;2023-02-10T07:58:09;3.60;99.90
19407;DHT22;9839;53.364;-1.204;2023-02-10T08:00:35;3.60;99.90
19407;DHT22;9839;53.364;-1.204;2023-02-10T08:03:01;3.60;99.90
19407;DHT22;9839;53.364;-1.204;2023-02-10T08:05:27;3.60;99.90
19407;DHT22;9839;53.364;-1.204;2023-02-10T08:07:54;3.60;99.90
19407;DHT22;9839;53.364;-1.204;2023-02-10T08:10:20;3.60;99.90
19407;DHT22;9839;53.364;-1.204;2023-02-10T08:12:46;3.70;99.90
19407;DHT22;9839;53.364;-1.204;2023-02-10T08:15:12;3.70;99.90
19407;DHT22;9839;53.364;-1.204;2023-02-10T08:17:38;3.70;99.90
19407;DHT22;9839;53.364;-1.204;2023-02-10T08:20:07;3.80;99.90
19407;DHT22;9839;53.364;-1.204;2023-02-10T08:22:33;3.90;99.90
19407;DHT22;9839;53.364;-1.204;2023-02-10T08:25:00;3.90;99.90
19407;DHT22;9839;53.364;-1.204;2023-02-10T08:27:26;4.00;99.90
19407;DHT22;9839;53.364;-1.204;2023-02-10T08:29:51;4.00;99.90
19407;DHT22;9839;53.364;-1.204;2023-02-10T08:32:17;4.00;99.90
19407;DHT22;9839;53.364;-1.204;2023-02-10T08:34:48;4.00;99.90
19407;DHT22;9839;53.364;-1.204;2023-02-10T08:37:16;4.00;99.90
19407;DHT22;9839;53.364;-1.204;2023-02-10T08:39:42;4.00;99.90
19407;DHT22;9839;53.364;-1.204;2023-02-10T08:42:08;4.10;99.90
19407;DHT22;9839;53.364;-1.204;2023-02-10T08:44:34;4.10;99.90
19407;DHT22;9839;53.364;-1.204;2023-02-10T08:47:00;4.10;99.90
19407;DHT22;9839;53.364;-1.204;2023-02-10T08:49:26;4.20;99.90
19407;DHT22;9839;53.364;-1.204;2023-02-10T08:51:52;4.20;99.90
19407;DHT22;9839;53.364;-1.204;2023-02-10T08:54:18;4.30;99.90
19407;DHT22;9839;53.364;-1.204;2023-02-10T08:56:44;4.30;99.90
19407;DHT22;9839;53.364;-1.204;2023-02-10T08:59:10;4.30;99.90
19407;DHT22;9839;53.364;-1.204;2023-02-10T09:01:36;4.40;99.90
19407;DHT22;9839;53.364;-1.204;2023-02-10T09:04:02;4.40;99.90
19407;DHT22;9839;53.364;-1.204;2023-02-10T09:06:32;4.50;99.90
19407;DHT22;9839;53.364;-1.204;2023-02-10T09:08:59;4.50;99.90
19407;DHT22;9839;53.364;-1.204;2023-02-10T09:11:26;4.50;99.90
19407;DHT22;9839;53.364;-1.204;2023-02-10T09:13:52;4.50;99.90
19407;DHT22;9839;53.364;-1.204;2023-02-10T09:16:18;4.60;99.90
19407;DHT22;9839;53.364;-1.204;2023-02-10T09:18:44;4.60;99.90
19407;DHT22;9839;53.364;-1.204;2023-02-10T09:21:10;4.70;99.90
19407;DHT22;9839;53.364;-1.204;2023-02-10T09:23:36;4.70;99.90
19407;DHT22;9839;53.364;-1.204;2023-02-10T09:26:02;4.70;99.90
19407;DHT22;9839;53.364;-1.204;2023-02-10T09:28:29;4.70;99.90
19407;DHT22;9839;53.364;-1.204;2023-02-10T09:30:55;4.80;99.90
19407;DHT22;9839;53.364;-1.204;2023-02-10T09:33:21;4.80;99.90
19407;DHT22;9839;53.364;-1.204;2023-02-10T09:35:46;4.80;99.90
19407;DHT22;9839;53.364;-1.204;2023-02-10T09:38:13;4.80;99.90
19407;DHT22;9839;53.364;-1.204;2023-02-10T09:54:08;5.00;99.90
19407;DHT22;9839;53.364;-1.204;2023-02-10T09:56:35;5.10;99.90
19407;DHT22;9839;53.364;-1.204;2023-02-10T09:59:01;5.10;99.90
19407;DHT22;9839;53.364;-1.204;2023-02-10T10:01:34;5.10;99.90
19407;DHT22;9839;53.364;-1.204;2023-02-10T10:04:15;5.10;99.90
19407;DHT22;9839;53.364;-1.204;2023-02-10T10:06:44;5.20;99.90
19407;DHT22;9839;53.364;-1.204;2023-02-10T10:09:14;5.30;99.90
19407;DHT22;9839;53.364;-1.204;2023-02-10T10:11:50;5.30;99.90
19407;DHT22;9839;53.364;-1.204;2023-02-10T10:14:22;5.40;99.90
19407;DHT22;9839;53.364;-1.204;2023-02-10T10:20:17;5.50;99.90
19407;DHT22;9839;53.364;-1.204;2023-02-10T10:26:00;5.50;99.90
19407;DHT22;9839;53.364;-1.204;2023-02-10T10:28:42;5.40;99.90
19407;DHT22;9839;53.364;-1.204;2023-02-10T10:31:19;5.50;99.90
19407;DHT22;9839;53.364;-1.204;2023-02-10T10:36:59;5.60;99.90
19407;DHT22;9839;53.364;-1.204;2023-02-10T10:39:38;5.60;99.90
19407;DHT22;9839;53.364;-1.204;2023-02-10T10:42:44;5.60;99.90
19407;DHT22;9839;53.364;-1.204;2023-02-10T10:45:18;5.70;99.90
19407;DHT22;9839;53.364;-1.204;2023-02-10T10:50:18;5.70;99.90
19407;DHT22;9839;53.364;-1.204;2023-02-10T10:52:45;5.80;99.90
19407;DHT22;9839;53.364;-1.204;2023-02-10T10:55:33;5.80;99.90
19407;DHT22;9839;53.364;-1.204;2023-02-10T10:58:01;5.90;99.90
19407;DHT22;9839;53.364;-1.204;2023-02-10T11:00:29;6.10;99.90
19407;DHT22;9839;53.364;-1.204;2023-02-10T11:02:58;6.10;99.90
19407;DHT22;9839;53.364;-1.204;2023-02-10T11:05:36;6.20;99.90
19407;DHT22;9839;53.364;-1.204;2023-02-10T11:08:04;6.30;99.90
19407;DHT22;9839;53.364;-1.204;2023-02-10T11:10:48;6.40;99.90
19407;DHT22;9839;53.364;-1.204;2023-02-10T11:13:22;6.40;99.90
19407;DHT22;9839;53.364;-1.204;2023-02-10T11:18:29;6.60;99.90
19407;DHT22;9839;53.364;-1.204;2023-02-10T11:21:02;6.70;99.90
19407;DHT22;9839;53.364;-1.204;2023-02-10T11:23:28;6.80;99.90
19407;DHT22;9839;53.364;-1.204;2023-02-10T11:26:06;7.00;99.90
19407;DHT22;9839;53.364;-1.204;2023-02-10T11:28:33;7.20;99.90
19407;DHT22;9839;53.364;-1.204;2023-02-10T11:33:57;7.40;99.90
19407;DHT22;9839;53.364;-1.204;2023-02-10T11:36:38;7.50;99.90
19407;DHT22;9839;53.364;-1.204;2023-02-10T11:39:06;7.70;99.90
19407;DHT22;9839;53.364;-1.204;2023-02-10T11:41:33;7.80;99.90
19407;DHT22;9839;53.364;-1.204;2023-02-10T11:44:00;7.90;99.90
19407;DHT22;9839;53.364;-1.204;2023-02-10T11:46:29;8.00;99.90
19407;DHT22;9839;53.364;-1.204;2023-02-10T11:49:01;8.20;99.90
19407;DHT22;9839;53.364;-1.204;2023-02-10T11:51:28;8.20;99.90
19407;DHT22;9839;53.364;-1.204;2023-02-10T11:53:55;8.30;99.90
19407;DHT22;9839;53.364;-1.204;2023-02-10T12:07:57;8.20;99.90
19407;DHT22;9839;53.364;-1.204;2023-02-10T12:12:57;8.10;99.90
19407;DHT22;9839;53.364;-1.204;2023-02-10T12:15:39;8.20;99.90
19407;DHT22;9839;53.364;-1.204;2023-02-10T12:24:01;8.50;99.90
19407;DHT22;9839;53.364;-1.204;2023-02-10T12:42:48;8.70;99.90
19407;DHT22;9839;53.364;-1.204;2023-02-10T12:53:39;8.70;99.90
19407;DHT22;9839;53.364;-1.204;2023-02-10T12:58:43;8.50;99.90
19407;DHT22;9839;53.364;-1.204;2023-02-10T13:01:19;8.50;99.90
19407;DHT22;9839;53.364;-1.204;2023-02-10T13:03:49;8.50;99.90
19407;DHT22;9839;53.364;-1.204;2023-02-10T13:08:56;8.50;99.90
19407;DHT22;9839;53.364;-1.204;2023-02-10T13:11:40;8.50;99.90
19407;DHT22;9839;53.364;-1.204;2023-02-10T13:14:16;8.40;99.90
19407;DHT22;9839;53.364;-1.204;2023-02-10T13:16:55;8.30;99.90
19407;DHT22;9839;53.364;-1.204;2023-02-10T13:19:43;8.20;99.90
19407;DHT22;9839;53.364;-1.204;2023-02-10T13:25:17;8.00;99.90
19407;DHT22;9839;53.364;-1.204;2023-02-10T13:30:25;7.90;99.90
19407;DHT22;9839;53.364;-1.204;2023-02-10T13:33:20;8.00;99.90
19407;DHT22;9839;53.364;-1.204;2023-02-10T13:35:52;7.90;99.90
19407;DHT22;9839;53.364;-1.204;2023-02-10T13:38:19;7.90;99.90
19407;DHT22;9839;53.364;-1.204;2023-02-10T13:40:51;7.90;99.90
19407;DHT22;9839;53.364;-1.204;2023-02-10T13:43:31;7.90;99.90
19407;DHT22;9839;53.364;-1.204;2023-02-10T13:45:59;7.80;99.90
19407;DHT22;9839;53.364;-1.204;2023-02-10T13:48:30;7.70;99.90
19407;DHT22;9839;53.364;-1.204;2023-02-10T13:51:07;7.60;99.90
19407;DHT22;9839;53.364;-1.204;2023-02-10T14:01:41;7.50;99.90
19407;DHT22;9839;53.364;-1.204;2023-02-10T14:07:28;7.40;99.90
19407;DHT22;9839;53.364;-1.204;2023-02-10T14:12:33;7.40;99.90
19407;DHT22;9839;53.364;-1.204;2023-02-10T14:15:25;7.40;99.90
19407;DHT22;9839;53.364;-1.204;2023-02-10T14:18:00;7.40;99.90
19407;DHT22;9839;53.364;-1.204;2023-02-10T14:20:36;7.30;99.90
19407;DHT22;9839;53.364;-1.204;2023-02-10T14:23:04;7.30;99.90
19407;DHT22;9839;53.364;-1.204;2023-02-10T14:25:42;7.30;99.90
19407;DHT22;9839;53.364;-1.204;2023-02-10T14:28:32;7.20;99.90
19407;DHT22;9839;53.364;-1.204;2023-02-10T14:31:22;7.30;99.90
19407;DHT22;9839;53.364;-1.204;2023-02-10T14:33:53;7.30;99.90
19407;DHT22;9839;53.364;-1.204;2023-02-10T14:36:19;7.30;99.90
19407;DHT22;9839;53.364;-1.204;2023-02-10T14:38:50;7.30;99.90
19407;DHT22;9839;53.364;-1.204;2023-02-10T14:41:16;7.30;99.90
19407;DHT22;9839;53.364;-1.204;2023-02-10T14:43:43;7.30;99.90
19407;DHT22;9839;53.364;-1.204;2023-02-10T14:46:17;7.30;99.90
19407;DHT22;9839;53.364;-1.204;2023-02-10T14:48:43;7.30;99.90
19407;DHT22;9839;53.364;-1.204;2023-02-10T14:51:24;7.30;99.90
19407;DHT22;9839;53.364;-1.204;2023-02-10T14:53:50;7.30;99.90
19407;DHT22;9839;53.364;-1.204;2023-02-10T14:56:24;7.40;99.90
19407;DHT22;9839;53.364;-1.204;2023-02-10T14:58:50;7.40;99.90
19407;DHT22;9839;53.364;-1.204;2023-02-10T15:01:26;7.40;99.90
19407;DHT22;9839;53.364;-1.204;2023-02-10T15:03:54;7.40;99.90
19407;DHT22;9839;53.364;-1.204;2023-02-10T15:06:25;7.40;99.90
19407;DHT22;9839;53.364;-1.204;2023-02-10T15:08:59;7.50;99.90
19407;DHT22;9839;53.364;-1.204;2023-02-10T15:11:41;7.50;99.90
19407;DHT22;9839;53.364;-1.204;2023-02-10T15:14:32;7.50;99.90
19407;DHT22;9839;53.364;-1.204;2023-02-10T15:17:03;7.50;99.90
19407;DHT22;9839;53.364;-1.204;2023-02-10T15:19:30;7.50;99.90
19407;DHT22;9839;53.364;-1.204;2023-02-10T15:21:55;7.50;99.90
19407;DHT22;9839;53.364;-1.204;2023-02-10T15:24:30;7.50;99.90
19407;DHT22;9839;53.364;-1.204;2023-02-10T15:27:13;7.50;99.90
19407;DHT22;9839;53.364;-1.204;2023-02-10T15:29:39;7.50;99.90
19407;DHT22;9839;53.364;-1.204;2023-02-10T15:32:19;7.50;99.90
19407;DHT22;9839;53.364;-1.204;2023-02-10T15:34:45;7.50;99.90
19407;DHT22;9839;53.364;-1.204;2023-02-10T15:37:20;7.40;99.90
19407;DHT22;9839;53.364;-1.204;2023-02-10T15:39:58;7.40;99.90
19407;DHT22;9839;53.364;-1.204;2023-02-10T15:42:29;7.40;99.90
19407;DHT22;9839;53.364;-1.204;2023-02-10T15:45:15;7.30;99.90
19407;DHT22;9839;53.364;-1.204;2023-02-10T15:47:47;7.30;99.90
19407;DHT22;9839;53.364;-1.204;2023-02-10T15:50:14;7.30;99.90
19407;DHT22;9839;53.364;-1.204;2023-02-10T15:52:45;7.30;99.90
19407;DHT22;9839;53.364;-1.204;2023-02-10T15:55:20;7.30;99.90
19407;DHT22;9839;53.364;-1.204;2023-02-10T15:57:47;7.30;99.90
19407;DHT22;9839;53.364;-1.204;2023-02-10T16:00:31;7.30;99.90
19407;DHT22;9839;53.364;-1.204;2023-02-10T16:02:57;7.40;99.90
19407;DHT22;9839;53.364;-1.204;2023-02-10T16:05:23;7.40;99.90
19407;DHT22;9839;53.364;-1.204;2023-02-10T16:07:51;7.30;99.90
19407;DHT22;9839;53.364;-1.204;2023-02-10T16:10:20;7.30;99.90
19407;DHT22;9839;53.364;-1.204;2023-02-10T16:12:46;7.30;99.90
19407;DHT22;9839;53.364;-1.204;2023-02-10T16:15:14;7.30;99.90
19407;DHT22;9839;53.364;-1.204;2023-02-10T16:17:42;7.30;99.90
19407;DHT22;9839;53.364;-1.204;2023-02-10T16:20:29;7.30;99.90
19407;DHT22;9839;53.364;-1.204;2023-02-10T16:22:56;7.30;99.90
19407;DHT22;9839;53.364;-1.204;2023-02-10T16:25:24;7.20;99.90
19407;DHT22;9839;53.364;-1.204;2023-02-10T16:27:50;7.30;99.90
19407;DHT22;9839;53.364;-1.204;2023-02-10T16:30:23;7.20;99.90
19407;DHT22;9839;53.364;-1.204;2023-02-10T16:32:49;7.20;99.90
19407;DHT22;9839;53.364;-1.204;2023-02-10T16:35:16;7.20;99.90
19407;DHT22;9839;53.364;-1.204;2023-02-10T16:37:42;7.20;99.90
19407;DHT22;9839;53.364;-1.204;2023-02-10T16:42:47;7.20;99.90
19407;DHT22;9839;53.364;-1.204;2023-02-10T16:45:13;7.20;99.90
19407;DHT22;9839;53.364;-1.204;2023-02-10T16:47:39;7.20;99.90
19407;DHT22;9839;53.364;-1.204;2023-02-10T16:50:06;7.20;99.90
19407;DHT22;9839;53.364;-1.204;2023-02-10T16:52:32;7.10;99.90
19407;DHT22;9839;53.364;-1.204;2023-02-10T16:54:57;7.10;99.90
19407;DHT22;9839;53.364;-1.204;2023-02-10T16:57:23;7.10;99.90
19407;DHT22;9839;53.364;-1.204;2023-02-10T16:59:49;7.10;99.90
19407;DHT22;9839;53.364;-1.204;2023-02-10T17:02:14;7.10;99.90
19407;DHT22;9839;53.364;-1.204;2023-02-10T17:04:40;7.20;99.90
19407;DHT22;9839;53.364;-1.204;2023-02-10T17:07:06;7.10;99.90
19407;DHT22;9839;53.364;-1.204;2023-02-10T17:09:32;7.10;99.90
19407;DHT22;9839;53.364;-1.204;2023-02-10T17:11:58;7.10;99.90
19407;DHT22;9839;53.364;-1.204;2023-02-10T17:14:23;7.10;99.90
19407;DHT22;9839;53.364;-1.204;2023-02-10T17:16:50;7.10;99.90
19407;DHT22;9839;53.364;-1.204;2023-02-10T17:19:20;7.10;99.90
19407;DHT22;9839;53.364;-1.204;2023-02-10T17:21:46;7.10;99.90
19407;DHT22;9839;53.364;-1.204;2023-02-10T17:24:12;7.00;99.90
19407;DHT22;9839;53.364;-1.204;2023-02-10T17:26:38;7.00;99.90
19407;DHT22;9839;53.364;-1.204;2023-02-10T17:29:14;6.90;99.90
19407;DHT22;9839;53.364;-1.204;2023-02-10T17:31:41;6.90;99.90
19407;DHT22;9839;53.364;-1.204;2023-02-10T17:34:07;6.80;99.90
19407;DHT22;9839;53.364;-1.204;2023-02-10T17:36:33;6.80;99.90
19407;DHT22;9839;53.364;-1.204;2023-02-10T17:38:59;6.70;99.90
19407;DHT22;9839;53.364;-1.204;2023-02-10T17:41:27;6.60;99.90
19407;DHT22;9839;53.364;-1.204;2023-02-10T17:43:56;6.60;99.90
19407;DHT22;9839;53.364;-1.204;2023-02-10T17:46:22;6.50;99.90
19407;DHT22;9839;53.364;-1.204;2023-02-10T17:48:48;6.60;99.90
19407;DHT22;9839;53.364;-1.204;2023-02-10T17:51:17;6.60;99.90
19407;DHT22;9839;53.364;-1.204;2023-02-10T17:53:44;6.60;99.90
19407;DHT22;9839;53.364;-1.204;2023-02-10T17:56:11;6.70;99.90
19407;DHT22;9839;53.364;-1.204;2023-02-10T17:58:37;6.70;99.90
19407;DHT22;9839;53.364;-1.204;2023-02-10T18:01:03;6.80;99.90
19407;DHT22;9839;53.364;-1.204;2023-02-10T18:03:29;6.80;99.90
19407;DHT22;9839;53.364;-1.204;2023-02-10T18:05:56;6.90;99.90
19407;DHT22;9839;53.364;-1.204;2023-02-10T18:08:26;6.90;99.90
19407;DHT22;9839;53.364;-1.204;2023-02-10T18:10:52;6.90;99.90
19407;DHT22;9839;53.364;-1.204;2023-02-10T18:13:18;7.00;99.90